Time;durP1;ratioP1;P1;durP2;ratioP2;P2;SDS_P1;SDS_P2;PMS_P1;PMS_P2;Temp;Humidity;BMP_temperature;BMP_pressure;BME280_temperature;BME280_humidity;BME280_pressure;Samples;Min_cycle;Max_cycle;Signal;HPM_P1;HPM_P2
2023/08/05 00:00:39;;;;;;;;;3.00;3.00;;;;;-143.90;75.30;73913.38;5014525;27;101772;-79
2023/08/05 00:03:16;;;;;;;;;3.33;2.33;;;;;-143.90;75.59;73907.16;5012145;27;102441;-79
2023/08/05 00:05:57;;;;;;;;;1.00;1.00;;;;;-143.90;76.28;73907.16;4989790;27;101771;-79
2023/08/05 00:08:47;;;;;;;;;3.33;2.00;;;;;-143.90;76.32;73907.16;5011372;27;102028;-79
2023/08/05 00:11:46;;;;;;;;;2.00;2.00;;;;;-143.90;75.52;73907.16;5018156;27;101823;-79
2023/08/05 00:14:27;;;;;;;;;3.00;2.00;;;;;-143.90;74.98;73907.16;5003820;28;104297;-79
2023/08/05 00:17:08;;;;;;;;;2.00;2.00;;;;;-143.90;76.01;73900.97;5011071;28;101896;-80
2023/08/05 00:19:43;;;;;;;;;2.00;2.00;;;;;-143.90;75.49;73903.03;5004797;28;101607;-79
2023/08/05 00:22:10;;;;;;;;;3.00;3.00;;;;;-143.90;75.40;73894.78;4996555;28;102391;-80
2023/08/05 00:24:39;;;;;;;;;1.00;1.00;;;;;-143.90;75.25;73890.63;5005082;27;103432;-79
2023/08/05 00:27:06;;;;;;;;;3.00;2.00;;;;;-143.90;74.91;73890.63;4985761;28;101866;-78
2023/08/05 00:29:33;;;;;;;;;2.00;1.00;;;;;-143.90;74.75;73888.56;5006028;27;101813;-79
2023/08/05 00:32:01;;;;;;;;;1.00;0.67;;;;;-143.90;74.22;73888.56;5002388;27;101949;-79
2023/08/05 00:34:28;;;;;;;;;1.00;1.00;;;;;-143.90;74.96;73894.78;4998916;28;103494;-79
2023/08/05 00:36:55;;;;;;;;;1.00;1.00;;;;;-143.90;74.76;73882.38;4999886;28;102948;-79
2023/08/05 00:39:29;;;;;;;;;1.00;1.00;;;;;-143.90;74.31;73882.38;4981952;28;102306;-79
2023/08/05 00:41:56;;;;;;;;;0.00;0.00;;;;;-143.90;74.24;73872.03;4997332;28;101743;-80
2023/08/05 00:44:24;;;;;;;;;2.00;1.67;;;;;-143.90;74.26;73878.25;5005509;27;102982;-79
2023/08/05 00:46:52;;;;;;;;;0.00;0.00;;;;;-143.90;74.45;73878.25;4990754;28;101645;-79
2023/08/05 00:49:20;;;;;;;;;0.00;0.00;;;;;-143.90;74.32;73890.63;4999214;28;102284;-79
2023/08/05 00:51:48;;;;;;;;;1.00;1.00;;;;;-143.90;74.24;73894.78;4981766;28;101578;-79
2023/08/05 00:54:16;;;;;;;;;1.00;1.00;;;;;-143.90;74.17;73882.38;5002227;28;103291;-78
2023/08/05 00:56:45;;;;;;;;;1.33;1.33;;;;;-143.90;73.55;73872.03;4988125;28;103037;-80
2023/08/05 00:59:13;;;;;;;;;0.00;0.00;;;;;-143.90;74.79;73865.84;5009732;28;102538;-78
2023/08/05 01:01:40;;;;;;;;;1.00;1.00;;;;;-143.90;74.44;73874.09;5002715;27;101578;-78
2023/08/05 01:04:08;;;;;;;;;0.33;0.33;;;;;-143.90;74.35;73878.25;4999827;28;102920;-78
2023/08/05 01:06:58;;;;;;;;;1.00;1.00;;;;;-143.90;74.25;73890.63;4989778;28;101699;-78
2023/08/05 01:09:51;;;;;;;;;1.00;1.00;;;;;-143.90;74.18;73878.25;5002797;28;102243;-78
2023/08/05 01:12:42;;;;;;;;;0.67;0.67;;;;;-143.90;75.11;73882.38;4991308;28;102274;-78
2023/08/05 01:15:25;;;;;;;;;1.00;1.00;;;;;-143.90;75.24;73892.69;4981298;28;104583;-80
2023/08/05 01:18:17;;;;;;;;;0.00;0.00;;;;;-143.90;75.39;73894.78;5007351;27;102979;-78
2023/08/05 01:20:55;;;;;;;;;0.00;0.00;;;;;-143.90;74.51;73909.25;4999624;28;102021;-78
2023/08/05 01:23:34;;;;;;;;;0.00;0.00;;;;;-143.90;75.77;73907.16;5005125;28;102193;-79
2023/08/05 01:26:05;;;;;;;;;1.00;1.00;;;;;-143.90;75.92;73907.16;4984558;28;102153;-79
2023/08/05 01:28:34;;;;;;;;;0.67;0.67;;;;;-143.90;76.43;73915.44;5008404;27;101960;-80
2023/08/05 01:31:03;;;;;;;;;0.00;0.00;;;;;-143.90;75.61;73909.25;5005079;28;102183;-79
2023/08/05 01:33:32;;;;;;;;;0.00;0.00;;;;;-143.90;75.74;73907.16;5003250;28;101628;-79
2023/08/05 01:35:59;;;;;;;;;0.00;0.00;;;;;-143.90;75.65;73911.31;5006206;28;102406;-79
2023/08/05 01:38:26;;;;;;;;;0.00;0.00;;;;;-143.90;75.63;73898.91;5002957;27;101788;-80
2023/08/05 01:40:53;;;;;;;;;1.00;1.00;;;;;-143.90;75.54;73898.91;5010289;27;101648;-79
2023/08/05 01:43:20;;;;;;;;;3.00;3.00;;;;;-143.90;75.45;73903.03;5014404;27;101950;-78
2023/08/05 01:45:48;;;;;;;;;3.00;2.00;;;;;-143.90;76.30;73909.25;5006679;27;103505;-78
2023/08/05 01:48:15;;;;;;;;;3.00;2.00;;;;;-143.90;76.24;73907.16;5004827;27;101660;-78
2023/08/05 01:50:43;;;;;;;;;2.33;2.33;;;;;-143.90;76.75;73898.91;4983979;28;102170;-78
2023/08/05 01:53:10;;;;;;;;;3.00;3.00;;;;;-143.90;76.73;73890.63;5006624;27;101731;-78
2023/08/05 01:55:37;;;;;;;;;3.00;2.67;;;;;-143.90;76.70;73886.50;4984064;28;103356;-78
2023/08/05 01:58:04;;;;;;;;;2.00;1.33;;;;;-143.90;76.87;73880.31;5008302;27;101724;-79
2023/08/05 02:00:31;;;;;;;;;2.00;2.00;;;;;-143.90;77.51;73874.09;5010181;27;101490;-78
2023/08/05 02:02:58;;;;;;;;;1.00;1.00;;;;;-143.90;77.61;73869.97;5003434;28;102604;-79
2023/08/05 02:05:26;;;;;;;;;1.00;1.00;;;;;-143.90;77.25;73890.63;5005419;28;104532;-78
2023/08/05 02:07:53;;;;;;;;;3.00;3.00;;;;;-143.90;77.05;73894.78;4984529;28;102243;-80
2023/08/05 02:10:20;;;;;;;;;1.33;1.33;;;;;-143.90;77.08;73884.44;5005181;28;101509;-79
2023/08/05 02:12:47;;;;;;;;;1.33;0.00;;;;;-143.90;77.16;73884.44;5009049;28;102873;-79
2023/08/05 02:15:26;;;;;;;;;1.00;1.00;;;;;-143.90;76.93;73884.44;4981566;27;103550;-79
2023/08/05 02:18:23;;;;;;;;;1.00;1.00;;;;;-143.90;76.94;73882.38;4995621;27;102670;-79
2023/08/05 02:21:18;;;;;;;;;1.67;1.67;;;;;-143.90;77.33;73878.25;5005511;28;101929;-79
2023/08/05 02:23:57;;;;;;;;;0.00;0.00;;;;;-143.90;76.96;73869.97;4997365;28;103038;-80
2023/08/05 02:26:24;;;;;;;;;1.00;1.00;;;;;-143.90;77.04;73874.09;5005151;28;104007;-79
2023/08/05 02:29:02;;;;;;;;;1.00;1.00;;;;;-143.90;76.80;73874.09;5001232;28;103200;-80
2023/08/05 02:31:40;;;;;;;;;1.00;1.00;;;;;-143.90;76.63;73872.03;5004354;28;101953;-79
2023/08/05 02:34:07;;;;;;;;;1.67;1.00;;;;;-143.90;76.75;73869.97;5010718;27;102273;-78
2023/08/05 02:36:34;;;;;;;;;0.67;0.67;;;;;-143.90;76.47;73867.91;5004150;27;103276;-78
2023/08/05 02:39:01;;;;;;;;;1.00;1.00;;;;;-143.90;76.30;73865.84;4983726;28;101558;-78
2023/08/05 02:41:28;;;;;;;;;1.33;1.33;;;;;-143.90;76.75;73874.09;4991097;28;102224;-78
2023/08/05 02:43:56;;;;;;;;;1.33;1.33;;;;;-143.90;76.41;73882.38;5007902;28;101976;-78
2023/08/05 02:46:23;;;;;;;;;1.00;1.00;;;;;-143.90;76.56;73874.09;5005070;28;103964;-80
2023/08/05 02:48:51;;;;;;;;;1.00;1.00;;;;;-143.90;77.35;73880.31;4989156;28;101623;-79
2023/08/05 02:51:22;;;;;;;;;1.33;1.33;;;;;-143.90;77.37;73878.25;5008063;27;101822;-79
2023/08/05 02:53:49;;;;;;;;;2.00;2.00;;;;;-143.90;77.75;73869.97;5002404;28;101795;-79
2023/08/05 02:56:16;;;;;;;;;1.00;1.00;;;;;-143.90;77.85;73878.25;5008115;28;103500;-79
2023/08/05 02:58:43;;;;;;;;;1.00;1.00;;;;;-143.90;78.40;73872.03;5000269;28;101649;-78
2023/08/05 03:01:11;;;;;;;;;0.00;0.00;;;;;-143.90;78.47;73865.84;5010003;28;101964;-77
2023/08/05 03:03:38;;;;;;;;;2.00;2.00;;;;;-143.90;78.33;73865.84;4988845;28;101651;-77
2023/08/05 03:06:05;;;;;;;;;0.00;0.00;;;;;-143.90;78.41;73867.91;5008679;27;104602;-78
2023/08/05 03:08:32;;;;;;;;;1.00;1.00;;;;;-143.90;79.11;73861.69;5009688;27;102456;-77
2023/08/05 03:11:01;;;;;;;;;1.00;1.00;;;;;-143.90;79.25;73863.78;5011561;27;101732;-78
2023/08/05 03:13:28;;;;;;;;;2.00;2.00;;;;;-143.90;79.30;73872.03;4992290;28;102592;-76
2023/08/05 03:15:55;;;;;;;;;2.00;1.67;;;;;-143.90;79.43;73888.56;5004480;28;102765;-76
2023/08/05 03:18:22;;;;;;;;;1.33;1.33;;;;;-143.90;79.46;73896.84;4986326;27;103157;-76
2023/08/05 03:20:49;;;;;;;;;3.00;3.00;;;;;-143.90;78.95;73917.50;5008684;27;101785;-78
2023/08/05 03:23:16;;;;;;;;;3.00;2.00;;;;;-143.90;79.28;73923.72;5009668;27;102529;-77
2023/08/05 03:25:44;;;;;;;;;3.33;2.33;;;;;-143.90;80.07;73929.91;5013557;28;103137;-77
2023/08/05 03:28:11;;;;;;;;;2.00;2.00;;;;;-143.90;80.38;73944.38;5008989;28;101821;-77
2023/08/05 03:30:38;;;;;;;;;3.00;2.00;;;;;-143.90;80.71;73948.50;5004875;27;101518;-77
2023/08/05 03:33:05;;;;;;;;;4.67;4.00;;;;;-143.90;81.63;73962.97;5009502;27;102045;-78
2023/08/05 03:35:32;;;;;;;;;4.00;4.00;;;;;-143.90;83.56;73991.91;5006917;27;103818;-78
2023/08/05 03:38:08;;;;;;;;;7.00;6.00;;;;;-143.90;85.39;74002.25;5005474;27;102944;-77
2023/08/05 03:40:53;;;;;;;;;4.00;4.00;;;;;-143.90;85.07;74004.31;5005754;27;101851;-77
2023/08/05 03:43:25;;;;;;;;;3.00;3.00;;;;;-143.90;84.68;74010.50;5004613;27;101721;-77
2023/08/05 03:45:52;;;;;;;;;2.67;2.00;;;;;-143.90;84.99;74014.66;5009954;27;103401;-77
2023/08/05 03:48:19;;;;;;;;;3.00;3.00;;;;;-143.90;84.31;74022.91;4986142;28;102501;-77
2023/08/05 03:50:49;;;;;;;;;2.67;2.00;;;;;-143.90;84.12;74022.91;5001248;27;102897;-77
2023/08/05 03:53:22;;;;;;;;;2.00;2.00;;;;;-143.90;83.65;74035.31;5000369;27;101726;-78
2023/08/05 03:55:49;;;;;;;;;1.00;1.00;;;;;-143.90;84.18;74058.06;5007378;27;103841;-78
2023/08/05 03:58:19;;;;;;;;;1.33;1.33;;;;;-143.90;84.09;74074.59;5004560;28;101649;-78
2023/08/05 04:00:47;;;;;;;;;2.00;2.00;;;;;-143.90;84.42;74076.66;5011274;28;102180;-78
2023/08/05 04:03:14;;;;;;;;;2.33;2.33;;;;;-143.90;84.12;74078.72;5012112;27;103196;-80
2023/08/05 04:05:41;;;;;;;;;7.00;7.00;;;;;-143.90;86.31;74097.31;5009726;27;103401;-83
2023/08/05 04:08:08;;;;;;;;;7.33;6.33;;;;;-143.90;87.65;74107.66;5011205;28;101589;-87
2023/08/05 04:10:38;;;;;;;;;5.00;5.00;;;;;-143.90;87.91;74103.53;5006409;28;101951;-86
2023/08/05 04:13:05;;;;;;;;;3.00;2.67;;;;;-143.90;88.35;74091.13;5004442;28;101429;-85
2023/08/05 04:15:35;;;;;;;;;4.33;4.00;;;;;-143.90;88.57;74097.31;5005674;27;103405;-84
2023/08/05 04:18:04;;;;;;;;;8.33;7.00;;;;;-143.90;88.47;74101.44;5000661;28;101953;-84
2023/08/05 04:20:34;;;;;;;;;6.00;5.00;;;;;-143.90;88.29;74093.19;5012539;27;101799;-83
2023/08/05 04:23:24;;;;;;;;;4.00;2.33;;;;;-143.90;88.11;74080.78;4993422;28;101911;-83
2023/08/05 04:26:18;;;;;;;;;4.67;4.67;;;;;-143.90;88.36;74082.84;5006313;28;102768;-82
2023/08/05 04:29:03;;;;;;;;;7.00;7.00;;;;;-143.90;87.98;74084.91;4988032;27;101746;-81
2023/08/05 04:31:31;;;;;;;;;9.00;7.33;;;;;-143.90;88.36;74091.13;5007463;27;101687;-81
2023/08/05 04:33:58;;;;;;;;;7.00;6.00;;;;;-143.90;88.79;74084.91;5002924;28;101894;-82
2023/08/05 04:36:25;;;;;;;;;7.33;7.00;;;;;-143.90;90.02;74095.25;5010615;27;102747;-82
2023/08/05 04:38:52;;;;;;;;;7.00;7.00;;;;;-143.90;91.45;74101.44;5003276;28;101725;-83
2023/08/05 04:41:19;;;;;;;;;7.67;6.00;;;;;-143.90;91.87;74105.59;5006485;27;101776;-83
2023/08/05 04:43:46;;;;;;;;;9.00;8.25;;;;;-143.90;91.00;74103.53;5007297;27;101801;-83
2023/08/05 04:46:14;;;;;;;;;5.00;5.00;;;;;-143.90;91.71;74101.44;4982194;28;103418;-83
2023/08/05 04:48:41;;;;;;;;;6.00;5.00;;;;;-143.90;91.46;74093.19;5000821;27;102717;-83
2023/08/05 04:51:08;;;;;;;;;7.00;7.00;;;;;-143.90;91.18;74086.97;5000706;28;103241;-83
2023/08/05 04:53:35;;;;;;;;;8.67;7.67;;;;;-143.90;91.35;74082.84;4984991;28;101694;-83
2023/08/05 04:56:02;;;;;;;;;8.00;7.00;;;;;-143.90;91.17;74066.31;5007019;27;103340;-82
2023/08/05 04:58:30;;;;;;;;;8.00;6.00;;;;;-143.90;90.53;74055.97;5004601;27;101644;-83
2023/08/05 05:00:58;;;;;;;;;5.67;5.00;;;;;-143.90;90.54;74047.72;5000731;28;101612;-83
2023/08/05 05:03:25;;;;;;;;;5.33;5.00;;;;;-143.90;90.99;74035.31;4988716;28;101819;-83
2023/08/05 05:05:53;;;;;;;;;4.00;4.00;;;;;-143.90;91.09;74033.25;5002121;27;103439;-83
2023/08/05 05:08:20;;;;;;;;;7.00;4.00;;;;;-143.90;90.60;74018.78;4999977;27;101783;-83
2023/08/05 05:11:08;;;;;;;;;7.00;6.00;;;;;-143.90;90.24;74029.13;5008334;27;101713;-82
2023/08/05 05:13:43;;;;;;;;;7.33;7.00;;;;;-143.90;89.87;74031.19;4985422;28;101836;-83
2023/08/05 05:16:11;;;;;;;;;7.00;6.33;;;;;-143.90;88.93;74020.84;4985590;28;103489;-82
2023/08/05 05:18:38;;;;;;;;;7.00;7.00;;;;;-143.90;89.45;74031.19;5006551;27;101859;-82
2023/08/05 05:21:10;;;;;;;;;3.67;3.67;;;;;-143.90;89.53;74037.38;5007148;27;102421;-82
2023/08/05 05:23:38;;;;;;;;;6.33;6.33;;;;;-143.90;89.07;74039.44;4985089;27;101826;-82
2023/08/05 05:26:06;;;;;;;;;5.00;5.00;;;;;-143.90;88.82;74031.19;4981244;28;102715;-82
2023/08/05 05:28:33;;;;;;;;;4.00;3.00;;;;;-143.90;89.57;74031.19;5001884;27;102073;-82
2023/08/05 05:31:06;;;;;;;;;8.33;8.00;;;;;-143.90;88.66;74033.25;4981665;27;101506;-82
2023/08/05 05:33:45;;;;;;;;;5.33;5.00;;;;;-143.90;88.67;74039.44;5001640;27;101664;-82
2023/08/05 05:36:12;;;;;;;;;4.33;4.33;;;;;-143.90;88.75;74043.59;5000120;27;102848;-82
2023/08/05 05:38:39;;;;;;;;;6.00;6.00;;;;;-143.90;89.06;74047.72;5001674;28;101796;-81
2023/08/05 05:41:06;;;;;;;;;6.00;6.00;;;;;-143.90;88.67;74041.50;4981679;28;101866;-82
2023/08/05 05:43:35;;;;;;;;;4.33;4.33;;;;;-143.90;88.59;74035.31;5000515;28;101910;-83
2023/08/05 05:46:02;;;;;;;;;3.33;3.33;;;;;-143.90;88.94;74035.31;4996884;28;103573;-83
2023/08/05 05:48:30;;;;;;;;;6.33;5.33;;;;;-143.90;88.45;74033.25;5005898;27;101805;-82
2023/08/05 05:50:57;;;;;;;;;4.67;4.67;;;;;-143.90;88.91;74014.66;5005689;27;101545;-82
2023/08/05 05:53:24;;;;;;;;;8.33;8.33;;;;;-143.90;88.90;74033.25;5002704;27;102002;-82
2023/08/05 05:55:55;;;;;;;;;5.00;5.00;;;;;-143.90;88.88;74039.44;4997798;28;103587;-83
2023/08/05 05:58:22;;;;;;;;;4.67;4.00;;;;;-143.90;89.21;74012.56;5001670;27;102159;-82
2023/08/05 06:00:56;;;;;;;;;4.00;3.00;;;;;-143.90;88.76;74014.66;5001378;28;101760;-82
2023/08/05 06:03:24;;;;;;;;;2.00;2.00;;;;;-143.90;88.42;74010.50;5002791;28;102192;-82
2023/08/05 06:05:51;;;;;;;;;2.00;2.00;;;;;-143.90;88.98;73985.72;5003945;27;102351;-82
2023/08/05 06:08:18;;;;;;;;;2.33;2.00;;;;;-143.90;88.27;73998.13;5001321;28;101672;-82
2023/08/05 06:11:04;;;;;;;;;2.00;2.00;;;;;-143.90;88.57;74016.72;5002551;27;101937;-82
2023/08/05 06:13:55;;;;;;;;;1.67;1.00;;;;;-143.90;88.62;74031.19;5002943;28;101707;-82
2023/08/05 06:16:39;;;;;;;;;2.00;2.00;;;;;-143.90;88.80;74039.44;4997246;27;104455;-83
2023/08/05 06:19:11;;;;;;;;;1.33;1.33;;;;;-143.90;88.65;74058.06;4997069;28;101920;-83
2023/08/05 06:21:40;;;;;;;;;1.00;0.00;;;;;-143.90;89.00;74064.25;4983044;28;103064;-84
2023/08/05 06:24:28;;;;;;;;;1.00;0.00;;;;;-143.90;88.06;74084.91;4984029;28;102717;-83
2023/08/05 06:26:57;;;;;;;;;0.33;0.33;;;;;-143.90;88.01;74086.97;5000551;27;102468;-82
2023/08/05 06:29:24;;;;;;;;;1.00;1.00;;;;;-143.90;87.86;74084.91;4996946;28;102973;-82
2023/08/05 06:31:51;;;;;;;;;0.00;0.00;;;;;-143.90;87.81;74084.91;5000796;27;101483;-83
2023/08/05 06:34:21;;;;;;;;;1.00;1.00;;;;;-143.90;88.93;74105.59;4997106;27;103078;-82
2023/08/05 06:36:48;;;;;;;;;2.00;1.33;;;;;-143.90;89.42;74109.72;5001316;28;103406;-83
2023/08/05 06:39:15;;;;;;;;;2.00;1.00;;;;;-143.90;90.29;74107.66;5003250;27;101767;-83
2023/08/05 06:41:42;;;;;;;;;3.00;2.67;;;;;-143.90;91.27;74111.78;5005293;28;102180;-83
2023/08/05 06:44:09;;;;;;;;;4.00;4.00;;;;;-143.90;92.31;74097.31;4984859;28;102075;-82
2023/08/05 06:46:39;;;;;;;;;4.00;4.00;;;;;-143.90;92.89;74064.25;4998877;27;103629;-82
2023/08/05 06:49:06;;;;;;;;;4.00;4.00;;;;;-143.90;92.84;74037.38;4999642;28;102270;-82
2023/08/05 06:51:33;;;;;;;;;2.00;2.00;;;;;-143.90;91.95;74016.72;4998827;28;101873;-82
2023/08/05 06:54:01;;;;;;;;;2.00;2.00;;;;;-143.90;91.81;74002.25;5000599;28;102657;-83
2023/08/05 06:56:28;;;;;;;;;1.33;1.00;;;;;-143.90;91.08;73971.25;4981169;28;102887;-84
2023/08/05 06:58:55;;;;;;;;;2.00;2.00;;;;;-143.90;90.68;73929.91;5003570;28;101822;-83
2023/08/05 07:01:23;;;;;;;;;5.00;3.00;;;;;-143.90;90.10;73882.38;4997629;28;101598;-83
2023/08/05 07:03:51;;;;;;;;;1.67;1.00;;;;;-143.90;89.49;73855.50;5002957;27;102136;-83
2023/08/05 07:06:18;;;;;;;;;2.00;1.67;;;;;-143.90;90.01;73857.56;5006813;27;102829;-83
2023/08/05 07:08:45;;;;;;;;;1.67;1.00;;;;;-143.90;90.15;73869.97;5000838;28;101811;-83
2023/08/05 07:11:12;;;;;;;;;1.67;1.67;;;;;-143.90;89.87;73888.56;4990068;28;101561;-82
2023/08/05 07:13:39;;;;;;;;;2.00;2.00;;;;;-143.90;89.49;73890.63;4981675;28;101959;-83
2023/08/05 07:16:07;;;;;;;;;2.00;1.00;;;;;-143.90;89.30;73890.63;4990608;28;105284;-82
2023/08/05 07:18:37;;;;;;;;;2.00;1.00;;;;;-143.90;89.10;73855.50;5006867;28;101746;-82
2023/08/05 07:21:04;;;;;;;;;1.67;1.00;;;;;-143.90;89.31;73824.50;5000806;27;102079;-80
2023/08/05 07:23:31;;;;;;;;;1.00;1.00;;;;;-143.90;88.82;73816.25;4989592;28;102881;-80
2023/08/05 07:26:01;;;;;;;;;2.00;1.00;;;;;-143.90;88.86;73803.84;5007828;27;103897;-79
2023/08/05 07:28:29;;;;;;;;;1.00;1.00;;;;;-143.90;88.23;73812.09;5008494;27;101790;-80
2023/08/05 07:31:08;;;;;;;;;2.00;2.00;;;;;-143.90;87.96;73820.38;5007310;28;101912;-80
2023/08/05 07:33:36;;;;;;;;;2.00;2.00;;;;;-143.90;87.46;73832.78;5006757;27;102287;-81
2023/08/05 07:36:08;;;;;;;;;2.00;1.00;;;;;-143.90;87.88;73818.31;5003199;27;104961;-81
2023/08/05 07:38:38;;;;;;;;;1.00;1.00;;;;;-143.90;88.19;73807.97;5002022;28;102404;-82
2023/08/05 07:41:09;;;;;;;;;2.00;2.00;;;;;-143.90;87.32;73805.91;5007305;27;101968;-80
2023/08/05 07:43:37;;;;;;;;;3.00;2.00;;;;;-143.90;87.42;73793.50;5006376;27;101907;-81
2023/08/05 07:46:06;;;;;;;;;5.00;5.00;;;;;-143.90;86.09;73766.63;5002734;28;103582;-80
2023/08/05 07:48:37;;;;;;;;;3.00;2.00;;;;;-143.90;85.94;73745.97;4985769;28;102130;-80
2023/08/05 07:51:06;;;;;;;;;4.33;3.00;;;;;-143.90;84.74;73752.16;5003609;28;102936;-81
2023/08/05 07:53:36;;;;;;;;;6.67;5.67;;;;;-143.90;82.39;73737.69;5005914;28;103029;-80
2023/08/05 07:56:14;;;;;;;;;5.33;4.67;;;;;-143.90;82.57;73731.50;5008977;27;102858;-81
2023/08/05 07:58:45;;;;;;;;;6.33;6.00;;;;;-143.90;82.99;73725.31;4999759;28;101938;-80
2023/08/05 08:01:17;;;;;;;;;4.33;3.00;;;;;-143.90;84.10;73727.38;4984167;27;103717;-79
2023/08/05 08:03:45;;;;;;;;;3.00;3.00;;;;;-143.90;83.07;73731.50;4984492;28;101616;-80
2023/08/05 08:06:15;;;;;;;;;6.00;6.00;;;;;-143.90;82.57;73741.84;5006068;27;103446;-79
2023/08/05 08:08:46;;;;;;;;;6.33;5.00;;;;;-143.90;82.89;73752.16;5001542;27;103037;-77
2023/08/05 08:11:14;;;;;;;;;6.00;4.00;;;;;-143.90;83.72;73758.38;5001613;27;102012;-77
2023/08/05 08:13:41;;;;;;;;;7.00;5.00;;;;;-143.90;82.04;73756.31;5009647;27;101658;-78
2023/08/05 08:16:08;;;;;;;;;5.33;4.00;;;;;-143.90;83.66;73750.09;5006719;28;103343;-78
2023/08/05 08:18:35;;;;;;;;;4.33;4.33;;;;;-143.90;84.08;73756.31;4991272;28;101821;-78
2023/08/05 08:21:05;;;;;;;;;5.00;5.00;;;;;-143.90;83.85;73754.25;5005192;27;101796;-78
2023/08/05 08:23:32;;;;;;;;;4.67;4.67;;;;;-143.90;84.24;73779.03;4996431;28;101979;-78
2023/08/05 08:25:59;;;;;;;;;5.67;4.67;;;;;-143.90;85.06;73781.09;5013693;28;103699;-78
2023/08/05 08:28:27;;;;;;;;;5.00;4.00;;;;;-143.90;84.73;73776.97;5007247;28;102534;-78
2023/08/05 08:30:55;;;;;;;;;4.00;3.67;;;;;-143.90;84.72;73799.69;5007839;28;101778;-78
2023/08/05 08:33:25;;;;;;;;;3.00;3.00;;;;;-143.90;85.58;73797.63;5007299;27;101874;-78
2023/08/05 08:35:53;;;;;;;;;2.33;2.33;;;;;-143.90;85.29;73797.63;5007119;27;103339;-78
2023/08/05 08:38:22;;;;;;;;;2.00;2.00;;;;;-143.90;85.96;73795.56;4986546;28;101993;-78
2023/08/05 08:40:56;;;;;;;;;3.00;3.00;;;;;-143.90;86.90;73814.16;5000773;27;101843;-79
2023/08/05 08:43:27;;;;;;;;;5.00;4.00;;;;;-143.90;85.93;73820.38;5009832;27;102534;-77
2023/08/05 08:45:55;;;;;;;;;3.67;3.67;;;;;-143.90;86.62;73820.38;5010615;27;103447;-77
2023/08/05 08:48:23;;;;;;;;;4.33;4.33;;;;;-143.90;86.50;73818.31;4991433;28;101804;-78
2023/08/05 08:50:52;;;;;;;;;5.67;3.33;;;;;-143.90;85.82;73824.50;5004682;27;101940;-77
2023/08/05 08:53:21;;;;;;;;;3.00;3.00;;;;;-143.90;86.64;73820.38;5011063;28;101788;-77
2023/08/05 08:55:49;;;;;;;;;4.00;4.00;;;;;-143.90;86.21;73820.38;5005695;27;103410;-78
2023/08/05 08:58:16;;;;;;;;;3.00;3.00;;;;;-143.90;86.39;73812.09;5010649;28;101677;-78
2023/08/05 09:00:44;;;;;;;;;4.00;4.00;;;;;-143.90;86.35;73807.97;4994370;28;101584;-77
2023/08/05 09:03:13;;;;;;;;;5.00;4.00;;;;;-143.90;86.17;73793.50;5008279;27;101851;-79
2023/08/05 09:05:59;;;;;;;;;2.67;2.00;;;;;-143.90;86.29;73795.56;4992993;28;103736;-78
2023/08/05 09:08:29;;;;;;;;;6.67;5.33;;;;;-143.90;85.46;73791.44;5003879;27;101709;-78
2023/08/05 09:10:56;;;;;;;;;6.00;4.67;;;;;-143.90;86.25;73774.91;5005896;27;101747;-76
2023/08/05 09:13:23;;;;;;;;;3.00;3.00;;;;;-143.90;85.46;73770.78;5005110;27;102301;-76
2023/08/05 09:15:51;;;;;;;;;4.67;4.67;;;;;-143.90;85.20;73764.56;4992203;27;103277;-77
2023/08/05 09:18:19;;;;;;;;;5.00;5.00;;;;;-143.90;84.72;73768.69;5007704;27;101458;-77
2023/08/05 09:20:49;;;;;;;;;7.00;5.00;;;;;-143.90;85.75;73768.69;5007575;27;101920;-76
2023/08/05 09:23:16;;;;;;;;;7.00;7.00;;;;;-143.90;85.38;73768.69;5008656;27;101532;-77
2023/08/05 09:25:47;;;;;;;;;6.33;6.33;;;;;-143.90;84.44;73764.56;5006594;27;103390;-76
2023/08/05 09:28:29;;;;;;;;;6.67;6.67;;;;;-143.90;85.22;73766.63;5002258;28;101554;-76
2023/08/05 09:31:16;;;;;;;;;4.00;4.00;;;;;-143.90;84.97;73762.50;5000806;27;101621;-76
2023/08/05 09:33:44;;;;;;;;;6.00;6.00;;;;;-143.90;84.31;73754.25;5010247;27;101546;-77
2023/08/05 09:36:12;;;;;;;;;4.33;3.33;;;;;-143.90;83.98;73750.09;4990089;27;103349;-76
2023/08/05 09:38:39;;;;;;;;;5.00;3.33;;;;;-143.90;83.59;73745.97;5003966;27;102721;-76
2023/08/05 09:41:07;;;;;;;;;6.00;5.00;;;;;-143.90;83.73;73739.78;5008346;27;101762;-76
2023/08/05 09:43:39;;;;;;;;;9.67;9.00;;;;;-143.90;82.85;73741.84;5008967;27;101846;-76
2023/08/05 09:46:11;;;;;;;;;6.00;6.00;;;;;-143.90;83.22;73717.03;5003906;27;103277;-76
2023/08/05 09:48:43;;;;;;;;;6.00;6.00;;;;;-143.90;84.14;73735.63;5004019;27;101820;-76
2023/08/05 09:51:18;;;;;;;;;7.00;7.00;;;;;-143.90;82.95;73725.31;5005646;27;101664;-78
2023/08/05 09:53:53;;;;;;;;;9.00;9.00;;;;;-143.90;82.66;73717.03;4995751;27;101948;-76
2023/08/05 09:56:20;;;;;;;;;4.00;4.00;;;;;-143.90;83.77;73694.31;4988676;28;103365;-75
2023/08/05 09:58:49;;;;;;;;;8.67;8.67;;;;;-143.90;82.81;73698.44;4984515;28;101938;-75
2023/08/05 10:01:18;;;;;;;;;9.00;8.00;;;;;-143.90;82.70;73688.09;5001739;27;102082;-76
2023/08/05 10:03:48;;;;;;;;;8.00;7.67;;;;;-143.90;82.75;73683.97;5005388;27;101598;-77
2023/08/05 10:06:16;;;;;;;;;5.67;5.67;;;;;-143.90;82.49;73667.44;5002908;28;103099;-77
2023/08/05 10:08:44;;;;;;;;;5.00;5.00;;;;;-143.90;83.00;73650.91;5004876;27;101624;-77
2023/08/05 10:11:11;;;;;;;;;4.33;4.33;;;;;-143.90;81.79;73648.84;5009285;27;101653;-77
2023/08/05 10:13:44;;;;;;;;;8.33;7.67;;;;;-143.90;81.26;73640.56;5007780;28;102016;-77
2023/08/05 10:16:13;;;;;;;;;6.00;6.00;;;;;-143.90;81.42;73638.50;5006896;27;103410;-77
2023/08/05 10:18:40;;;;;;;;;5.00;5.00;;;;;-143.90;80.38;73634.38;5006829;27;101582;-76
2023/08/05 10:21:09;;;;;;;;;5.00;4.00;;;;;-143.90;80.84;73628.16;4999053;27;101514;-75
2023/08/05 10:23:37;;;;;;;;;10.00;9.00;;;;;-143.90;80.47;73638.50;5002983;27;101665;-76
2023/08/05 10:26:05;;;;;;;;;13.00;12.00;;;;;-143.90;79.82;73646.78;4990116;27;103096;-76
2023/08/05 10:28:35;;;;;;;;;12.00;10.00;;;;;-143.90;80.23;73646.78;5012656;27;101758;-75
2023/08/05 10:31:04;;;;;;;;;11.00;10.67;;;;;-143.90;80.79;73665.38;5012215;27;102354;-75
2023/08/05 10:33:52;;;;;;;;;7.00;6.33;;;;;-143.90;81.10;73677.78;5002483;27;102266;-76
2023/08/05 10:36:19;;;;;;;;;12.67;12.00;;;;;-143.90;81.40;73663.31;5008360;27;103365;-76
2023/08/05 10:38:46;;;;;;;;;8.00;7.00;;;;;-143.90;81.37;73652.97;5005684;27;102030;-76
2023/08/05 10:41:15;;;;;;;;;9.00;8.00;;;;;-143.90;81.73;73646.78;5007371;27;102530;-76
2023/08/05 10:43:42;;;;;;;;;10.00;9.33;;;;;-143.90;81.36;73646.78;5004180;27;101738;-76
2023/08/05 10:46:12;;;;;;;;;6.33;5.67;;;;;-143.90;81.43;73642.63;5006203;27;103380;-76
2023/08/05 10:48:48;;;;;;;;;7.00;6.00;;;;;-143.90;81.32;73632.31;4983632;28;102726;-76
2023/08/05 10:51:20;;;;;;;;;6.00;6.00;;;;;-143.90;80.93;73628.16;4988870;28;101929;-76
2023/08/05 10:53:47;;;;;;;;;9.00;9.00;;;;;-143.90;80.81;73632.31;5007132;27;102107;-75
2023/08/05 10:56:14;;;;;;;;;10.33;10.00;;;;;-143.90;81.22;73619.91;4988704;28;103382;-76
2023/08/05 10:58:49;;;;;;;;;8.00;8.00;;;;;-143.90;81.27;73609.56;5004314;27;101846;-75
2023/08/05 11:01:17;;;;;;;;;7.67;7.00;;;;;-143.90;81.24;73605.44;5008620;27;101923;-75
2023/08/05 11:03:49;;;;;;;;;9.33;9.00;;;;;-143.90;80.68;73607.50;5017048;27;101679;-75
2023/08/05 11:06:24;;;;;;;;;9.67;8.00;;;;;-143.90;81.36;73593.03;5012559;27;103680;-75
2023/08/05 11:08:52;;;;;;;;;7.00;7.00;;;;;-143.90;80.63;73593.03;5009153;27;101501;-75
2023/08/05 11:11:19;;;;;;;;;21.00;19.00;;;;;-143.90;79.70;73586.84;5007803;27;101519;-75
2023/08/05 11:13:48;;;;;;;;;13.67;10.00;;;;;-143.90;80.85;73576.50;4991013;28;101616;-75
2023/08/05 11:16:17;;;;;;;;;14.00;13.33;;;;;-143.90;79.77;73580.63;5004074;27;103565;-77
2023/08/05 11:18:54;;;;;;;;;11.00;11.00;;;;;-143.90;80.77;73570.31;5011061;27;101747;-76
2023/08/05 11:21:22;;;;;;;;;13.33;12.33;;;;;-143.90;79.37;73576.50;4995093;27;101580;-75
2023/08/05 11:23:49;;;;;;;;;17.00;16.33;;;;;-143.90;80.00;73576.50;4999383;27;102199;-75